Poskin, Wisconsin
Current Conditions -  °F | °C
As of 6:15 PM on Wednesday 22 Oct 2014 (Local Time) from KRPD Reporting Station
Broken Clouds Broken Clouds  
Wind Chill: 55°   Ceiling: 3700
Heat Index: 55°   Visibility: 10mi
Dew Point: 32°   Wind: 10mph
Humidity: 42%   Direction: 140°SE
Pressure: 30.12"   Gusts: 16mph
Location:  45.3978°N, 91.8834°W
Report Text: KRPD 222315Z AUTO 14009G14KT 10SM BKN037 BKN055 13/00 A3012 RMK AO2 T01270002
Loading
Personal Weather Stations






























Interactive Weather Map
Tropical Storm Tracking
New forecast layout! Learn more

10-Day Weather Forecast

Advertisements
Track Severe Weather on mobile